Terminal Aerodrome Forecast
Issued by NWS Louisville, KY

Home | Current Version | Previous Version | Text Only | Print | Product List | Glossary On
Versions: 1 2 3 4 5 6 7 8 9 10 11 12 13 14 15 16 17 18 19 20
000
FTUS43 KLMK 280917 AAA
TAFLEX
TAF AMD
KLEX 280917Z 2809/2906 VRB04KT 6SM -TSRA BR FEW006 BKN015CB
      TEMPO 2809/2811 3SM -TSRA BKN006CB
     FM281100 20004KT 6SM BR VCSH SCT006 BKN015
      TEMPO 2811/2815 5SM -SHRA BR BKN006
     FM281500 VRB05KT 5SM BR VCSH SCT009 BKN012
      TEMPO 2815/2819 2SM SHRA BKN009
     FM282300 VRB04KT P6SM VCSH SCT025 BKN050=

USA.gov is the U.S. government's official web portal to all federal, state and local government web resources and services.